Time;durP1;ratioP1;P1;durP2;ratioP2;P2;SDS_P1;SDS_P2;PMS_P1;PMS_P2;Temp;Humidity;BMP_temperature;BMP_pressure;BME280_temperature;BME280_humidity;BME280_pressure;Samples;Min_cycle;Max_cycle;Signal;HPM_P1;HPM_P2
2021/09/25 00:01:26;;;;;;;12.57;4.30;;;17.00;99.90;;;;;;6187212;23;20016;-77
2021/09/25 00:03:52;;;;;;;9.80;3.60;;;17.00;99.90;;;;;;6187587;23;20016;-78
2021/09/25 00:06:17;;;;;;;10.20;4.50;;;17.00;99.90;;;;;;6211238;23;20090;-77
2021/09/25 00:08:43;;;;;;;10.38;4.60;;;16.90;99.90;;;;;;6187571;23;20112;-78
2021/09/25 00:11:13;;;;;;;11.55;4.13;;;16.90;99.90;;;;;;6161435;23;20023;-78
2021/09/25 00:13:38;;;;;;;9.13;4.85;;;16.90;99.90;;;;;;6186319;23;20579;-78
2021/09/25 00:16:07;;;;;;;11.13;5.00;;;16.90;99.90;;;;;;6211588;23;20016;-77
2021/09/25 00:18:35;;;;;;;11.13;5.30;;;16.90;99.90;;;;;;6211385;23;20527;-78
2021/09/25 00:21:04;;;;;;;10.98;5.20;;;16.90;99.90;;;;;;6184506;23;20021;-77
2021/09/25 00:23:30;;;;;;;10.10;5.38;;;16.90;99.90;;;;;;6212119;23;20068;-77
2021/09/25 00:25:56;;;;;;;10.85;5.90;;;16.90;99.90;;;;;;6212104;23;20025;-76
2021/09/25 00:28:22;;;;;;;9.93;5.10;;;16.80;99.90;;;;;;6211952;23;20024;-78
2021/09/25 00:30:47;;;;;;;13.45;5.60;;;16.80;99.90;;;;;;6209563;23;20016;-77
2021/09/25 00:33:13;;;;;;;12.65;5.22;;;16.80;99.90;;;;;;6137141;23;20020;-78
2021/09/25 00:35:39;;;;;;;11.82;6.05;;;16.90;99.90;;;;;;6186180;23;20027;-78
2021/09/25 00:38:05;;;;;;;9.73;5.53;;;16.80;99.90;;;;;;6212126;23;20016;-78
2021/09/25 00:40:34;;;;;;;11.00;6.10;;;16.90;99.90;;;;;;6162981;23;20035;-78
2021/09/25 00:42:59;;;;;;;11.10;5.95;;;16.90;99.90;;;;;;6164667;23;20016;-78
2021/09/25 00:45:26;;;;;;;13.73;6.50;;;16.90;99.90;;;;;;6154014;23;20046;-77
2021/09/25 00:47:55;;;;;;;11.75;6.18;;;16.90;99.90;;;;;;6186691;23;20115;-78
2021/09/25 00:50:22;;;;;;;10.20;5.78;;;16.80;99.90;;;;;;6184754;23;20035;-78
2021/09/25 00:52:48;;;;;;;11.10;6.07;;;16.90;99.90;;;;;;6213030;23;20026;-79
2021/09/25 00:55:14;;;;;;;14.00;5.93;;;16.90;99.90;;;;;;6185331;23;20020;-78
2021/09/25 00:57:41;;;;;;;12.57;6.38;;;16.90;99.90;;;;;;6162297;23;20851;-78
2021/09/25 01:00:08;;;;;;;12.63;6.90;;;16.90;99.90;;;;;;6154889;23;20016;-78
2021/09/25 01:02:35;;;;;;;12.18;6.20;;;16.90;99.90;;;;;;6157499;23;20055;-79
2021/09/25 01:05:02;;;;;;;14.20;6.70;;;16.90;99.90;;;;;;6183806;23;20024;-78
2021/09/25 01:07:28;;;;;;;10.68;5.90;;;16.90;99.90;;;;;;6184017;23;20330;-78
2021/09/25 01:09:55;;;;;;;11.70;6.00;;;16.90;99.90;;;;;;6184491;23;20525;-78
2021/09/25 01:12:21;;;;;;;18.02;5.80;;;16.90;99.90;;;;;;6209368;23;20055;-78
2021/09/25 01:14:46;;;;;;;13.93;6.22;;;16.90;99.90;;;;;;6160315;23;20103;-78
2021/09/25 01:17:13;;;;;;;10.23;6.28;;;16.90;99.90;;;;;;6184036;23;20695;-78
2021/09/25 01:19:41;;;;;;;12.23;5.40;;;16.90;99.90;;;;;;6184043;23;20039;-78
2021/09/25 01:22:06;;;;;;;13.98;6.20;;;16.90;99.90;;;;;;6209585;23;20427;-78
2021/09/25 01:24:33;;;;;;;13.32;5.47;;;16.90;99.90;;;;;;6160212;23;20031;-78
2021/09/25 01:27:01;;;;;;;10.80;5.03;;;16.90;99.90;;;;;;6210358;23;20012;-79
2021/09/25 01:29:30;;;;;;;11.63;5.03;;;16.90;99.90;;;;;;6161056;23;20021;-78
2021/09/25 01:31:56;;;;;;;11.25;5.28;;;16.90;99.90;;;;;;6160213;23;20420;-78
2021/09/25 01:34:22;;;;;;;12.27;5.40;;;16.90;99.90;;;;;;6209717;23;20013;-78
2021/09/25 01:36:49;;;;;;;12.77;5.10;;;16.90;99.90;;;;;;6159918;23;20095;-78
2021/09/25 01:39:18;;;;;;;11.63;5.18;;;16.90;99.90;;;;;;6210019;23;20468;-78
2021/09/25 01:41:44;;;;;;;11.48;4.82;;;16.90;99.90;;;;;;6184649;23;20083;-78
2021/09/25 01:44:10;;;;;;;16.27;5.88;;;16.90;99.90;;;;;;6209026;23;20074;-78
2021/09/25 01:46:36;;;;;;;15.70;5.80;;;16.90;99.90;;;;;;6157617;23;20025;-77
2021/09/25 01:49:03;;;;;;;15.15;6.85;;;16.90;99.90;;;;;;6208873;23;20016;-78
2021/09/25 01:51:29;;;;;;;13.45;5.30;;;16.90;99.90;;;;;;6184560;23;20078;-78
2021/09/25 01:53:54;;;;;;;14.02;5.50;;;16.90;99.90;;;;;;6183436;23;20334;-78
2021/09/25 01:56:20;;;;;;;13.98;5.55;;;16.90;99.90;;;;;;6183670;23;20119;-79
2021/09/25 01:58:46;;;;;;;13.10;6.00;;;16.90;99.90;;;;;;6209502;23;20515;-78
2021/09/25 02:01:13;;;;;;;13.30;5.00;;;16.90;99.90;;;;;;6187173;23;20518;-78
2021/09/25 02:03:39;;;;;;;14.07;5.47;;;16.90;99.90;;;;;;6213412;23;20020;-79
2021/09/25 02:06:10;;;;;;;9.30;4.72;;;16.90;99.90;;;;;;6190040;23;20012;-78
2021/09/25 02:08:39;;;;;;;11.95;4.90;;;16.90;99.90;;;;;;6214384;23;20460;-79
2021/09/25 02:11:05;;;;;;;14.25;5.72;;;16.90;99.90;;;;;;6214431;23;20039;-78
2021/09/25 02:13:31;;;;;;;11.80;4.80;;;16.90;99.90;;;;;;6164594;23;20028;-78
2021/09/25 02:15:58;;;;;;;15.52;5.82;;;16.90;99.90;;;;;;6165252;23;20052;-78
2021/09/25 02:18:24;;;;;;;15.15;5.13;;;16.90;99.90;;;;;;6213945;23;20024;-78
2021/09/25 02:20:50;;;;;;;22.52;6.18;;;16.90;99.90;;;;;;6215019;23;20016;-79
2021/09/25 02:23:16;;;;;;;9.75;4.65;;;16.90;99.90;;;;;;6140883;23;20016;-78
2021/09/25 02:25:42;;;;;;;16.52;5.85;;;16.90;99.90;;;;;;6214751;23;20016;-79
2021/09/25 02:28:08;;;;;;;14.57;5.63;;;16.90;99.90;;;;;;6189296;23;20396;-79
2021/09/25 02:30:34;;;;;;;14.90;5.35;;;16.90;99.90;;;;;;6213987;23;20064;-78
2021/09/25 02:33:00;;;;;;;10.10;5.05;;;16.90;99.90;;;;;;6164312;23;20023;-77
2021/09/25 02:35:26;;;;;;;14.70;5.53;;;16.90;99.90;;;;;;6214742;23;20452;-78
2021/09/25 02:37:52;;;;;;;14.88;5.30;;;16.90;99.90;;;;;;6189716;23;20027;-78
2021/09/25 02:40:21;;;;;;;12.02;5.50;;;16.90;99.90;;;;;;6189671;23;20016;-78
2021/09/25 02:42:47;;;;;;;13.95;5.03;;;16.90;99.90;;;;;;6165136;23;20107;-78
2021/09/25 02:45:14;;;;;;;14.23;5.53;;;16.90;99.90;;;;;;6163662;23;20016;-77
2021/09/25 02:47:41;;;;;;;14.55;5.40;;;16.90;99.90;;;;;;6213073;23;20020;-78
2021/09/25 02:50:09;;;;;;;14.43;5.30;;;16.90;99.90;;;;;;6188506;23;20016;-78
2021/09/25 02:52:35;;;;;;;14.23;5.88;;;16.90;99.90;;;;;;6164135;23;20074;-78
2021/09/25 02:55:05;;;;;;;16.98;5.78;;;16.90;99.90;;;;;;6189308;23;20019;-77
2021/09/25 02:57:31;;;;;;;13.43;5.55;;;16.90;99.90;;;;;;6164982;23;20055;-79
2021/09/25 02:59:57;;;;;;;13.82;5.90;;;16.90;99.90;;;;;;6189273;23;20020;-78
2021/09/25 03:02:23;;;;;;;16.77;5.38;;;16.90;99.90;;;;;;6164180;23;20024;-78
2021/09/25 03:04:49;;;;;;;13.68;5.82;;;16.90;99.90;;;;;;6189370;23;20020;-78
2021/09/25 03:07:15;;;;;;;16.23;6.00;;;16.90;99.90;;;;;;6189131;23;20013;-77
2021/09/25 03:09:40;;;;;;;19.00;6.22;;;16.90;99.90;;;;;;6213583;23;20465;-78
2021/09/25 03:12:07;;;;;;;11.82;5.80;;;16.90;99.90;;;;;;6164095;23;20027;-78
2021/09/25 03:14:32;;;;;;;12.35;5.47;;;16.90;99.90;;;;;;6189431;23;20016;-77
2021/09/25 03:16:58;;;;;;;14.32;5.88;;;16.90;99.90;;;;;;6214344;23;20020;-77
2021/09/25 03:19:24;;;;;;;14.50;5.53;;;16.90;99.90;;;;;;6164096;23;20012;-77
2021/09/25 03:21:50;;;;;;;13.70;5.50;;;16.90;99.90;;;;;;6188589;23;20047;-77
2021/09/25 03:24:16;;;;;;;16.27;6.40;;;16.90;99.90;;;;;;6189214;23;20020;-77
2021/09/25 03:26:42;;;;;;;15.95;7.47;;;16.90;99.90;;;;;;6214324;23;20028;-77
2021/09/25 03:29:08;;;;;;;17.02;6.35;;;16.90;99.90;;;;;;6188331;23;20047;-77
2021/09/25 03:31:34;;;;;;;16.38;6.18;;;16.90;99.90;;;;;;6189035;23;20020;-77
2021/09/25 03:34:00;;;;;;;12.73;5.85;;;16.90;99.90;;;;;;6165121;23;20119;-78
2021/09/25 03:36:26;;;;;;;15.27;6.03;;;16.90;99.90;;;;;;6214737;23;20047;-78
2021/09/25 03:38:52;;;;;;;18.35;6.18;;;16.90;99.90;;;;;;6213572;23;20030;-77
2021/09/25 03:41:17;;;;;;;16.75;5.85;;;16.90;99.90;;;;;;6189141;23;20077;-78
2021/09/25 03:43:49;;;;;;;11.20;6.30;;;16.90;99.90;;;;;;6188875;23;20223;-77
2021/09/25 03:46:18;;;;;;;15.25;6.25;;;16.90;99.90;;;;;;6213085;23;20020;-77
2021/09/25 03:48:45;;;;;;;18.00;6.47;;;16.90;99.90;;;;;;6139676;23;20599;-77
2021/09/25 03:51:11;;;;;;;11.77;6.03;;;16.90;99.90;;;;;;6188911;23;20048;-77
2021/09/25 03:53:37;;;;;;;12.80;6.10;;;16.90;99.90;;;;;;6188187;23;20027;-77
2021/09/25 03:56:07;;;;;;;13.35;6.40;;;16.90;99.90;;;;;;6188607;23;20012;-77
2021/09/25 03:58:38;;;;;;;12.70;6.97;;;16.90;99.90;;;;;;6213705;23;20474;-77
2021/09/25 04:01:05;;;;;;;15.75;6.63;;;16.90;99.90;;;;;;6206996;23;20025;-77
2021/09/25 04:03:31;;;;;;;15.13;6.30;;;16.90;99.90;;;;;;6209102;23;20078;-77
2021/09/25 04:05:58;;;;;;;12.77;6.43;;;16.90;99.90;;;;;;6182687;23;20102;-77
2021/09/25 04:08:25;;;;;;;15.38;6.95;;;16.90;99.90;;;;;;6183903;23;20056;-78
2021/09/25 04:10:51;;;;;;;12.43;6.60;;;16.90;99.90;;;;;;6208560;23;20095;-77
2021/09/25 04:13:17;;;;;;;14.63;6.25;;;16.80;99.90;;;;;;6183124;23;20095;-78
2021/09/25 04:15:43;;;;;;;12.98;7.22;;;16.80;99.90;;;;;;6183565;23;20083;-77
2021/09/25 04:18:09;;;;;;;17.88;8.45;;;16.80;99.90;;;;;;6183282;23;20017;-77
2021/09/25 04:20:35;;;;;;;13.13;7.65;;;16.80;99.90;;;;;;6208196;23;20063;-77
2021/09/25 04:23:05;;;;;;;18.23;8.30;;;16.80;99.90;;;;;;6183144;23;20414;-77
2021/09/25 04:25:34;;;;;;;18.33;7.80;;;16.80;99.90;;;;;;6209134;23;20386;-78
2021/09/25 04:28:10;;;;;;;16.30;7.88;;;16.80;99.90;;;;;;6183808;23;20020;-77
2021/09/25 04:30:40;;;;;;;14.48;8.02;;;16.80;99.90;;;;;;6183067;23;20103;-77
2021/09/25 04:33:08;;;;;;;18.08;9.65;;;16.80;99.90;;;;;;6183151;23;20020;-78
2021/09/25 04:35:35;;;;;;;20.55;9.23;;;16.80;99.90;;;;;;6183499;23;20032;-78
2021/09/25 04:38:00;;;;;;;16.10;8.60;;;16.70;99.90;;;;;;6183436;23;20019;-78
2021/09/25 04:40:29;;;;;;;14.10;8.63;;;16.70;99.90;;;;;;6134702;23;20016;-78
2021/09/25 04:42:56;;;;;;;15.00;8.18;;;16.70;99.90;;;;;;6158742;23;20013;-78
2021/09/25 04:45:22;;;;;;;17.17;9.15;;;16.60;99.90;;;;;;6207976;23;20099;-78
2021/09/25 04:47:48;;;;;;;18.10;8.70;;;16.60;99.90;;;;;;6208589;23;20467;-79
2021/09/25 04:50:15;;;;;;;20.35;9.38;;;16.60;99.90;;;;;;6182884;23;20022;-78
2021/09/25 04:52:41;;;;;;;16.80;9.48;;;16.60;99.90;;;;;;6208335;23;20031;-78
2021/09/25 04:55:07;;;;;;;14.90;8.63;;;16.50;99.90;;;;;;6183630;23;20024;-79
2021/09/25 04:57:33;;;;;;;17.83;9.52;;;16.50;99.90;;;;;;6184304;23;20110;-78
2021/09/25 04:59:59;;;;;;;22.52;10.13;;;16.50;99.90;;;;;;6208358;23;20020;-78
2021/09/25 05:02:25;;;;;;;19.17;10.13;;;16.40;99.90;;;;;;6208073;23;20021;-78
2021/09/25 05:04:51;;;;;;;16.48;9.15;;;16.40;99.90;;;;;;6208871;23;20083;-78
2021/09/25 05:07:17;;;;;;;15.77;9.00;;;16.30;99.90;;;;;;6184418;23;20119;-78
2021/09/25 05:09:43;;;;;;;16.77;10.43;;;16.30;99.90;;;;;;6209086;23;20052;-79
2021/09/25 05:12:09;;;;;;;19.25;10.52;;;16.30;99.90;;;;;;6183799;23;20488;-79
2021/09/25 05:14:34;;;;;;;18.20;9.65;;;16.20;99.90;;;;;;6208585;23;20025;-78
2021/09/25 05:17:03;;;;;;;21.80;10.70;;;16.20;99.90;;;;;;6159051;23;20027;-78
2021/09/25 05:19:29;;;;;;;17.13;10.32;;;16.20;99.90;;;;;;6183430;23;20027;-78
2021/09/25 05:21:55;;;;;;;18.95;11.02;;;16.20;99.90;;;;;;6157689;23;20013;-78
2021/09/25 05:24:21;;;;;;;20.50;11.25;;;16.10;99.90;;;;;;6183174;23;20337;-78
2021/09/25 05:26:48;;;;;;;18.77;12.30;;;16.10;99.90;;;;;;6183098;23;20021;-78
2021/09/25 05:29:16;;;;;;;17.15;10.77;;;16.10;99.90;;;;;;6184263;23;20103;-79
2021/09/25 05:31:45;;;;;;;19.17;10.00;;;16.10;99.90;;;;;;6210046;23;20027;-78
2021/09/25 05:34:11;;;;;;;19.52;11.75;;;16.00;99.90;;;;;;6160567;23;20023;-78
2021/09/25 05:36:37;;;;;;;20.42;11.70;;;16.00;99.90;;;;;;6184677;23;20059;-78
2021/09/25 05:39:04;;;;;;;18.10;10.02;;;16.00;99.90;;;;;;6184506;23;20016;-78
2021/09/25 05:41:32;;;;;;;20.48;12.10;;;16.00;99.90;;;;;;6210368;23;20020;-78
2021/09/25 05:43:57;;;;;;;18.17;11.05;;;16.00;99.90;;;;;;6184271;23;20013;-79
2021/09/25 05:46:23;;;;;;;18.80;11.70;;;15.90;99.90;;;;;;6184350;23;20043;-78
2021/09/25 05:48:51;;;;;;;20.63;11.85;;;15.90;99.90;;;;;;6209212;23;20021;-78
2021/09/25 05:51:20;;;;;;;22.77;11.35;;;16.00;99.90;;;;;;6185068;23;20020;-78
2021/09/25 05:53:47;;;;;;;17.60;11.43;;;16.00;99.90;;;;;;6209964;23;20103;-78
2021/09/25 05:56:13;;;;;;;26.08;12.35;;;15.90;99.90;;;;;;6209548;23;20025;-78
2021/09/25 05:58:39;;;;;;;18.08;10.48;;;15.90;99.90;;;;;;6184803;23;20074;-79
2021/09/25 06:01:05;;;;;;;18.02;11.30;;;15.90;99.90;;;;;;6184075;23;20315;-78
2021/09/25 06:03:34;;;;;;;17.27;10.80;;;15.90;99.90;;;;;;6185269;23;20020;-79
2021/09/25 06:05:59;;;;;;;17.00;11.43;;;16.00;99.90;;;;;;6184678;23;20048;-79
2021/09/25 06:08:25;;;;;;;19.15;11.25;;;15.90;99.90;;;;;;6185109;23;20445;-78
2021/09/25 06:10:51;;;;;;;21.20;13.10;;;16.00;99.90;;;;;;6209494;23;20723;-78
2021/09/25 06:13:17;;;;;;;19.80;11.95;;;16.00;99.90;;;;;;6184415;23;20020;-78
2021/09/25 06:15:44;;;;;;;18.13;12.00;;;16.00;99.90;;;;;;6184863;23;20104;-78
2021/09/25 06:18:10;;;;;;;20.40;11.85;;;16.10;99.90;;;;;;6183882;23;20016;-78
2021/09/25 06:20:36;;;;;;;18.65;10.20;;;16.10;99.90;;;;;;6184769;23;20019;-78
2021/09/25 06:23:03;;;;;;;23.85;11.77;;;16.10;99.90;;;;;;6208879;23;20052;-78
2021/09/25 06:25:29;;;;;;;21.05;12.75;;;16.10;99.90;;;;;;6209752;23;20023;-78
2021/09/25 06:27:55;;;;;;;20.73;11.70;;;16.10;99.90;;;;;;6184009;23;20151;-79
2021/09/25 06:30:21;;;;;;;22.20;12.45;;;16.10;99.90;;;;;;6184143;23;20055;-78
2021/09/25 06:32:47;;;;;;;19.60;11.38;;;16.10;99.90;;;;;;6185081;23;20020;-78
2021/09/25 06:35:15;;;;;;;21.42;12.80;;;16.10;99.90;;;;;;6184213;23;20384;-78
2021/09/25 06:37:41;;;;;;;20.38;12.23;;;16.20;99.90;;;;;;6185113;23;20099;-78
2021/09/25 06:40:09;;;;;;;24.88;12.73;;;16.20;99.90;;;;;;6209150;23;20013;-78
2021/09/25 06:42:35;;;;;;;20.10;12.93;;;16.20;99.90;;;;;;6184819;23;20056;-79
2021/09/25 06:45:01;;;;;;;19.48;13.00;;;16.20;99.90;;;;;;6184249;23;20016;-78
2021/09/25 06:47:30;;;;;;;22.42;12.77;;;16.30;99.90;;;;;;6185171;23;20020;-79
2021/09/25 06:49:56;;;;;;;22.58;13.48;;;16.30;99.90;;;;;;6208843;23;20057;-79
2021/09/25 06:52:23;;;;;;;20.67;13.63;;;16.40;99.90;;;;;;6184857;23;20017;-78
2021/09/25 06:54:49;;;;;;;20.63;12.93;;;16.40;99.90;;;;;;6160409;23;20036;-78
2021/09/25 06:57:15;;;;;;;20.85;12.77;;;16.40;99.90;;;;;;6159877;23;20016;-79
2021/09/25 06:59:41;;;;;;;20.95;13.88;;;16.50;99.90;;;;;;6184480;23;20020;-78
2021/09/25 07:02:07;;;;;;;24.75;13.38;;;16.50;99.90;;;;;;6183362;23;20021;-78
2021/09/25 07:04:33;;;;;;;20.83;12.52;;;16.50;99.90;;;;;;6184711;23;20016;-78
2021/09/25 07:06:59;;;;;;;17.17;12.85;;;16.60;99.90;;;;;;6159793;23;20504;-79
2021/09/25 07:09:25;;;;;;;24.23;13.70;;;16.60;99.90;;;;;;6184255;23;20016;-78
2021/09/25 07:11:51;;;;;;;23.30;13.60;;;16.70;99.90;;;;;;6184549;23;20019;-79
2021/09/25 07:14:17;;;;;;;19.27;12.48;;;16.70;99.90;;;;;;6183179;23;20024;-79
2021/09/25 07:16:44;;;;;;;22.50;13.50;;;16.80;99.90;;;;;;6209084;23;20016;-78
2021/09/25 07:19:10;;;;;;;25.65;13.38;;;16.80;99.90;;;;;;6183031;23;20481;-79
2021/09/25 07:21:36;;;;;;;16.83;13.52;;;16.80;99.90;;;;;;6207780;23;20012;-78
2021/09/25 07:24:02;;;;;;;22.20;13.80;;;16.90;99.90;;;;;;6182939;23;20016;-76
2021/09/25 07:26:28;;;;;;;25.05;14.25;;;16.90;99.90;;;;;;6209343;23;20024;-78
2021/09/25 07:28:56;;;;;;;24.23;13.90;;;16.90;99.90;;;;;;6183520;23;20354;-78
2021/09/25 07:31:22;;;;;;;24.70;14.75;;;17.00;99.90;;;;;;6207849;23;20052;-78
2021/09/25 07:33:48;;;;;;;21.65;14.10;;;17.10;99.90;;;;;;6208818;23;20337;-78
2021/09/25 07:36:14;;;;;;;23.13;14.82;;;17.10;99.90;;;;;;6182584;23;20025;-78
2021/09/25 07:38:40;;;;;;;27.13;15.60;;;17.30;99.90;;;;;;6208528;23;20098;-79
2021/09/25 07:41:06;;;;;;;28.30;16.02;;;17.40;99.90;;;;;;6208221;23;20012;-79
2021/09/25 07:43:35;;;;;;;29.00;15.40;;;17.40;99.90;;;;;;6183302;23;20020;-79
2021/09/25 07:46:02;;;;;;;25.25;14.85;;;17.40;99.90;;;;;;6207205;23;20046;-78
2021/09/25 07:48:28;;;;;;;26.85;16.15;;;17.50;99.90;;;;;;6155673;23;20166;-78
2021/09/25 07:50:53;;;;;;;32.20;15.48;;;17.50;99.90;;;;;;6181531;23;20087;-79
2021/09/25 07:53:19;;;;;;;29.52;16.58;;;17.50;99.90;;;;;;6206295;23;20103;-79
2021/09/25 07:55:45;;;;;;;27.48;16.15;;;17.50;99.90;;;;;;6206990;23;20082;-79
2021/09/25 07:58:11;;;;;;;32.38;16.35;;;17.50;99.90;;;;;;6175783;23;20021;-79
2021/09/25 08:00:39;;;;;;;32.22;17.27;;;17.50;99.90;;;;;;6177339;23;20051;-79
2021/09/25 08:03:07;;;;;;;30.63;16.67;;;17.50;99.90;;;;;;6180637;23;20016;-79
2021/09/25 08:05:36;;;;;;;25.80;16.35;;;17.50;99.90;;;;;;6178281;23;20027;-79
2021/09/25 08:08:02;;;;;;;39.47;19.25;;;17.50;99.90;;;;;;6170396;23;20180;-79
2021/09/25 08:10:28;;;;;;;32.95;18.45;;;17.40;99.90;;;;;;6179188;23;20052;-79
2021/09/25 08:12:54;;;;;;;38.97;19.38;;;17.40;99.90;;;;;;6204261;23;20017;-79
2021/09/25 08:15:19;;;;;;;31.88;18.20;;;17.50;99.90;;;;;;6203382;23;20345;-79
2021/09/25 08:17:46;;;;;;;35.78;19.55;;;17.50;99.90;;;;;;6179310;23;20027;-79
2021/09/25 08:20:14;;;;;;;34.50;19.23;;;17.50;99.90;;;;;;6180449;23;20016;-79
2021/09/25 08:22:42;;;;;;;39.08;19.40;;;17.50;99.90;;;;;;6182732;23;20013;-78
2021/09/25 08:25:09;;;;;;;36.13;18.50;;;17.60;99.90;;;;;;6198868;23;20027;-79
2021/09/25 08:27:35;;;;;;;36.75;20.08;;;17.60;99.90;;;;;;6178928;23;20077;-79
2021/09/25 08:30:03;;;;;;;45.90;20.25;;;17.70;99.90;;;;;;6181288;23;20020;-79
2021/09/25 08:32:29;;;;;;;37.53;19.50;;;17.70;99.90;;;;;;6180989;23;20051;-79
2021/09/25 08:34:55;;;;;;;38.83;19.25;;;17.80;99.90;;;;;;6181001;23;20016;-78
2021/09/25 08:37:21;;;;;;;38.13;20.25;;;17.80;99.90;;;;;;6180895;23;20096;-78
2021/09/25 08:39:47;;;;;;;38.08;20.67;;;17.80;99.90;;;;;;6182620;23;20071;-78
2021/09/25 08:42:16;;;;;;;40.20;20.65;;;17.90;99.90;;;;;;6183657;23;20012;-79
2021/09/25 08:44:51;;;;;;;34.05;18.60;;;17.90;99.90;;;;;;6178174;23;20129;-79
2021/09/25 08:47:18;;;;;;;38.60;20.48;;;18.10;99.90;;;;;;6179450;23;20023;-79
2021/09/25 08:49:44;;;;;;;35.10;20.30;;;18.10;99.90;;;;;;6178972;23;20024;-79
2021/09/25 08:52:10;;;;;;;38.78;20.10;;;18.10;99.90;;;;;;6181292;23;20016;-79
2021/09/25 08:54:36;;;;;;;33.33;20.88;;;18.20;99.90;;;;;;6205873;23;20044;-78
2021/09/25 08:57:06;;;;;;;28.80;19.50;;;18.30;99.90;;;;;;6180603;23;20017;-79
2021/09/25 08:59:34;;;;;;;31.48;19.30;;;18.30;99.90;;;;;;6206758;23;20454;-79
2021/09/25 09:02:18;;;;;;;34.10;20.70;;;18.30;99.90;;;;;;6181472;23;20350;-79
2021/09/25 09:04:48;;;;;;;28.33;19.90;;;18.40;99.90;;;;;;6209028;23;20127;-79
2021/09/25 09:07:15;;;;;;;;;;;18.40;99.90;;;;;;6208370;23;20024;-79
2021/09/25 09:09:43;;;;;;;34.47;20.25;;;18.40;99.90;;;;;;6182905;23;19991;-77
2021/09/25 09:12:09;;;;;;;34.22;22.52;;;18.50;99.90;;;;;;6183222;23;20457;-79
2021/09/25 09:14:44;;;;;;;31.73;20.02;;;18.50;99.90;;;;;;6183458;23;20104;-78
2021/09/25 09:17:12;;;;;;;34.03;20.35;;;18.50;99.90;;;;;;6183815;23;20016;-79
2021/09/25 09:19:38;;;;;;;32.75;20.75;;;18.60;99.90;;;;;;6208085;23;20020;-79
2021/09/25 09:22:05;;;;;;;35.72;21.88;;;18.60;99.90;;;;;;6208330;23;20027;-79
2021/09/25 09:24:51;;;;;;;36.05;20.70;;;18.60;99.90;;;;;;6208102;23;20016;-79
2021/09/25 09:27:28;;;;;;;29.92;19.88;;;18.60;99.90;;;;;;6182489;23;20021;-79
2021/09/25 09:30:12;;;;;;;31.63;19.88;;;18.60;99.90;;;;;;6208674;23;20021;-79
2021/09/25 09:32:42;;;;;;;38.22;22.02;;;18.70;99.90;;;;;;6182864;23;20498;-79
2021/09/25 09:35:12;;;;;;;;;;;18.70;99.90;;;;;;6208884;23;20079;-79
2021/09/25 09:37:38;;;;;;;34.25;20.33;;;18.70;99.90;;;;;;6182238;23;20082;-79
2021/09/25 09:40:08;;;;;;;31.25;20.00;;;18.70;99.90;;;;;;6208265;23;20079;-79
2021/09/25 09:42:45;;;;;;;33.25;21.08;;;18.70;99.90;;;;;;6207186;23;20016;-79
2021/09/25 09:45:11;;;;;;;34.00;21.38;;;18.80;99.90;;;;;;6207267;23;20052;-78
2021/09/25 09:47:46;;;;;;;33.80;21.23;;;18.80;99.90;;;;;;6208483;23;20017;-79
2021/09/25 09:50:15;;;;;;;31.15;19.77;;;18.80;99.90;;;;;;6208949;23;20019;-78
2021/09/25 09:52:42;;;;;;;31.63;20.60;;;18.90;99.90;;;;;;6208857;23;20019;-78
2021/09/25 09:55:08;;;;;;;34.20;20.60;;;18.90;99.90;;;;;;6209209;23;20464;-79
2021/09/25 09:57:34;;;;;;;36.85;19.98;;;19.00;99.90;;;;;;6183522;23;20111;-79
2021/09/25 10:00:02;;;;;;;27.88;20.40;;;19.00;99.90;;;;;;6184261;23;20048;-77
2021/09/25 10:02:27;;;;;;;34.88;20.90;;;19.00;99.90;;;;;;6184415;23;20461;-78
2021/09/25 10:04:54;;;;;;;34.03;20.50;;;19.10;99.90;;;;;;6210445;23;20027;-79
2021/09/25 10:07:20;;;;;;;35.53;20.80;;;19.10;99.90;;;;;;6183494;23;20020;-78
2021/09/25 10:09:46;;;;;;;38.40;22.67;;;19.10;99.90;;;;;;6184063;23;20017;-79
2021/09/25 10:12:14;;;;;;;32.80;20.95;;;19.20;99.90;;;;;;6184473;23;20521;-78
2021/09/25 10:14:46;;;;;;;35.20;21.80;;;19.30;99.90;;;;;;6183598;23;20191;-78
2021/09/25 10:17:13;;;;;;;33.55;20.73;;;19.30;99.90;;;;;;6183926;23;20453;-79
2021/09/25 10:19:41;;;;;;;29.05;19.20;;;19.30;99.90;;;;;;6209029;23;20070;-79
2021/09/25 10:22:21;;;;;;;37.15;21.83;;;19.40;99.90;;;;;;6209212;23;20017;-79
2021/09/25 10:24:56;;;;;;;33.78;21.15;;;19.40;99.90;;;;;;6205079;23;20108;-78
2021/09/25 10:27:26;;;;;;;33.75;22.00;;;19.50;99.90;;;;;;6181083;23;20353;-79
2021/09/25 10:29:53;;;;;;;37.45;24.40;;;19.50;99.90;;;;;;6181126;23;20025;-79
2021/09/25 10:32:27;;;;;;;36.03;23.25;;;19.40;99.90;;;;;;6208006;23;20818;-78
2021/09/25 10:35:03;;;;;;;36.67;23.45;;;19.50;99.90;;;;;;6206735;23;20028;-79
2021/09/25 10:37:34;;;;;;;32.47;21.75;;;19.50;99.90;;;;;;6207347;23;20013;-79
2021/09/25 10:40:00;;;;;;;40.80;24.98;;;19.60;99.90;;;;;;6182463;23;20020;-79
2021/09/25 10:42:56;;;;;;;36.03;23.95;;;19.60;99.90;;;;;;6181201;23;20027;-79
2021/09/25 10:45:37;;;;;;;37.25;25.45;;;19.60;99.90;;;;;;6206284;23;20020;-79
2021/09/25 10:48:16;;;;;;;35.42;25.63;;;19.70;99.90;;;;;;6205563;23;20479;-79
2021/09/25 10:51:12;;;;;;;34.20;23.58;;;19.60;99.90;;;;;;6205904;23;20357;-78
2021/09/25 10:53:40;;;;;;;37.05;25.65;;;19.60;99.90;;;;;;6180884;23;20656;-78
2021/09/25 10:56:17;;;;;;;35.97;23.55;;;19.60;99.90;;;;;;6180653;23;20024;-79
2021/09/25 10:58:57;;;;;;;38.55;25.60;;;19.50;99.90;;;;;;6180671;23;20020;-79
2021/09/25 11:01:41;;;;;;;40.55;25.60;;;19.50;99.90;;;;;;6182852;23;20087;-78
2021/09/25 11:04:12;;;;;;;32.72;23.55;;;19.60;99.90;;;;;;6180111;23;20024;-79
2021/09/25 11:06:47;;;;;;;39.20;24.20;;;19.60;99.90;;;;;;6181741;23;20091;-79
2021/09/25 11:09:27;;;;;;;36.70;23.38;;;19.60;99.90;;;;;;6183185;23;20020;-79
2021/09/25 11:11:55;;;;;;;40.17;26.40;;;19.70;99.90;;;;;;6208724;23;20111;-78
2021/09/25 11:14:53;;;;;;;39.85;26.80;;;19.70;99.90;;;;;;6208720;23;20012;-79
2021/09/25 11:17:19;;;;;;;41.35;26.40;;;19.80;99.90;;;;;;6205796;23;20024;-79
2021/09/25 11:19:57;;;;;;;40.25;29.55;;;19.80;99.90;;;;;;6208301;23;20017;-79
2021/09/25 11:22:29;;;;;;;39.00;27.95;;;19.80;99.90;;;;;;6182915;23;20020;-78
2021/09/25 11:25:03;;;;;;;41.47;28.75;;;19.80;99.90;;;;;;6182396;23;20106;-79
2021/09/25 11:27:32;;;;;;;38.35;28.80;;;19.70;99.90;;;;;;6205277;23;20021;-78
2021/09/25 11:30:08;;;;;;;41.67;28.75;;;19.80;99.90;;;;;;6182394;23;20024;-78
2021/09/25 11:32:51;;;;;;;39.55;27.10;;;19.80;99.90;;;;;;6183760;23;20017;-79
2021/09/25 11:35:23;;;;;;;36.90;25.25;;;19.80;99.90;;;;;;6204517;23;20341;-78
2021/09/25 11:38:11;;;;;;;38.47;24.67;;;19.90;99.90;;;;;;6208384;23;20096;-79
2021/09/25 11:40:49;;;;;;;44.35;26.88;;;19.80;99.90;;;;;;6182111;23;20103;-78
2021/09/25 11:43:17;;;;;;;37.83;25.27;;;19.90;99.90;;;;;;6209050;23;20445;-79
2021/09/25 11:45:48;;;;;;;40.00;26.45;;;19.90;99.90;;;;;;6182842;23;20021;-78
2021/09/25 11:48:17;;;;;;;38.65;26.55;;;19.90;99.90;;;;;;6208387;23;20112;-77
2021/09/25 11:50:46;;;;;;;36.60;24.97;;;19.90;99.90;;;;;;6207845;23;20016;-77
2021/09/25 11:53:15;;;;;;;33.47;24.00;;;19.90;99.90;;;;;;6208321;23;20521;-78
2021/09/25 11:55:42;;;;;;;36.28;24.48;;;20.00;99.90;;;;;;6207199;23;20048;-77
2021/09/25 11:58:13;;;;;;;35.78;24.52;;;20.00;99.90;;;;;;6183497;23;20016;-79
2021/09/25 12:00:49;;;;;;;35.92;23.45;;;20.10;99.90;;;;;;6182998;23;20048;-78
2021/09/25 12:03:17;;;;;;;32.88;23.80;;;20.10;99.90;;;;;;6182888;23;20522;-78
2021/09/25 12:05:49;;;;;;;33.65;23.55;;;20.20;99.90;;;;;;6208465;23;20028;-78
2021/09/25 12:08:23;;;;;;;31.55;22.88;;;20.20;99.90;;;;;;6208288;23;20357;-78
2021/09/25 12:10:54;;;;;;;32.55;24.45;;;20.20;99.90;;;;;;6178857;23;20166;-78
2021/09/25 12:13:38;;;;;;;33.70;24.73;;;20.10;99.90;;;;;;6204375;23;20091;-78
2021/09/25 12:16:11;;;;;;;33.10;24.67;;;20.20;99.90;;;;;;6181245;23;20091;-78
2021/09/25 12:18:38;;;;;;;31.60;23.88;;;20.20;99.90;;;;;;6181138;23;20644;-78
2021/09/25 12:21:26;;;;;;;76.10;33.70;;;20.20;99.90;;;;;;6206494;23;20029;-78
2021/09/25 12:23:55;;;;;;;35.03;23.13;;;20.20;99.90;;;;;;6203831;23;20027;-79
2021/09/25 12:26:22;;;;;;;31.30;23.93;;;20.20;99.90;;;;;;6180087;23;20380;-78
2021/09/25 12:28:56;;;;;;;35.00;24.25;;;20.30;99.90;;;;;;6207528;23;20019;-78
2021/09/25 12:31:26;;;;;;;28.10;21.65;;;20.30;99.90;;;;;;6181545;23;20517;-78
2021/09/25 12:33:59;;;;;;;29.25;21.52;;;20.30;99.90;;;;;;6180928;23;20595;-77
2021/09/25 12:36:31;;;;;;;29.42;20.50;;;20.30;99.90;;;;;;6181173;23;20056;-78